createdAt,value
2023-03-18T00:01:07.575Z,54.74
2023-03-18T00:03:37.600Z,54.55
2023-03-18T00:06:13.979Z,54.87
2023-03-18T00:08:42.776Z,54.86
2023-03-18T00:11:11.342Z,55.09
2023-03-18T00:13:38.872Z,55.37
2023-03-18T00:16:06.874Z,56.68
2023-03-18T00:18:34.471Z,57.56
2023-03-18T00:21:02.094Z,58.72
2023-03-18T00:23:29.164Z,59.43
2023-03-18T00:25:58.386Z,61.43
2023-03-18T00:28:26.004Z,61.67
2023-03-18T00:30:54.280Z,62.13
2023-03-18T00:33:21.345Z,61.58
2023-03-18T00:35:48.605Z,60.57
2023-03-18T00:38:20.821Z,60.60
2023-03-18T00:41:01.406Z,60.52
2023-03-18T00:43:33.778Z,58.86
2023-03-18T00:46:01.169Z,59.16
2023-03-18T00:48:28.127Z,58.10
2023-03-18T00:50:56.072Z,57.44
2023-03-18T00:53:25.170Z,58.19
2023-03-18T00:55:53.207Z,57.25
2023-03-18T00:58:20.242Z,57.33
2023-03-18T01:00:47.826Z,58.37
2023-03-18T01:03:14.831Z,59.72
2023-03-18T01:05:42.503Z,60.77
2023-03-18T01:08:09.607Z,61.07
2023-03-18T01:10:36.922Z,61.67
2023-03-18T01:13:03.853Z,61.28
2023-03-18T01:15:31.125Z,61.21
2023-03-18T01:17:58.533Z,61.38
2023-03-18T01:20:25.969Z,62.66
2023-03-18T01:22:52.813Z,63.69
2023-03-18T01:25:20.472Z,65.97
2023-03-18T01:27:47.377Z,66.36
2023-03-18T01:30:14.871Z,66.79
2023-03-18T01:32:43.929Z,66.81
2023-03-18T01:35:12.393Z,67.93
2023-03-18T01:37:39.774Z,67.79
2023-03-18T01:40:11.376Z,68.42
2023-03-18T01:42:38.745Z,69.63
2023-03-18T01:45:21.730Z,69.75
2023-03-18T01:47:49.940Z,69.47
2023-03-18T01:50:26.338Z,70.57
2023-03-18T01:52:58.154Z,70.86
2023-03-18T01:55:28.331Z,70.73
2023-03-18T01:57:56.424Z,71.37
2023-03-18T02:00:24.072Z,72.39
2023-03-18T02:02:55.442Z,72.57
2023-03-18T02:05:28.945Z,73.48
2023-03-18T02:07:55.940Z,75.03
2023-03-18T02:10:29.388Z,76.43
2023-03-18T02:13:03.641Z,75.75
2023-03-18T02:15:33.976Z,74.86
2023-03-18T02:18:08.124Z,75.22
2023-03-18T02:20:53.668Z,76.45
2023-03-18T02:23:29.258Z,76.60
2023-03-18T02:26:10.482Z,77.39
2023-03-18T02:28:38.823Z,78.64
2023-03-18T02:31:11.951Z,80.53
2023-03-18T02:33:41.003Z,80.75
2023-03-18T02:36:13.761Z,82.11
2023-03-18T02:38:43.150Z,81.11
2023-03-18T02:41:21.956Z,80.11
2023-03-18T02:43:50.080Z,81.67
2023-03-18T02:49:21.585Z,75.13
2023-03-18T02:51:49.428Z,73.28
2023-03-18T02:54:20.989Z,70.20
2023-03-18T02:56:48.592Z,66.04
2023-03-18T02:59:15.867Z,62.99
2023-03-18T03:01:45.211Z,59.99
2023-03-18T03:04:12.475Z,57.00
2023-03-18T03:06:40.751Z,55.83
2023-03-18T03:09:10.358Z,54.66
2023-03-18T03:11:37.825Z,54.44
2023-03-18T03:14:05.265Z,53.58
2023-03-18T03:16:32.821Z,52.83
2023-03-18T03:18:59.672Z,52.69
2023-03-18T03:21:27.898Z,54.31
2023-03-18T03:23:56.137Z,57.21
2023-03-18T03:26:23.244Z,61.29
2023-03-18T03:28:50.088Z,62.22
2023-03-18T03:31:17.842Z,65.42
2023-03-18T03:33:45.375Z,69.03
2023-03-18T03:36:15.650Z,69.47
2023-03-18T03:38:43.651Z,69.55
2023-03-18T03:41:12.418Z,70.73
2023-03-18T03:43:40.700Z,71.91
2023-03-18T03:46:09.579Z,72.07
2023-03-18T03:48:37.221Z,72.43
2023-03-18T03:51:05.504Z,72.21
2023-03-18T03:53:34.053Z,71.76
2023-03-18T03:56:01.245Z,71.53
2023-03-18T03:58:29.188Z,71.59
2023-03-18T04:00:56.561Z,72.13
2023-03-18T04:03:23.857Z,73.82
2023-03-18T04:05:51.204Z,74.22
2023-03-18T04:08:18.227Z,73.26
2023-03-18T04:10:45.496Z,73.36
2023-03-18T04:13:12.356Z,73.49
2023-03-18T04:15:40.075Z,73.45
2023-03-18T04:18:07.319Z,73.32
2023-03-18T04:20:37.683Z,73.12
2023-03-18T04:23:05.086Z,73.18
2023-03-18T04:25:33.316Z,76.08
2023-03-18T04:28:00.244Z,76.08
2023-03-18T04:30:28.322Z,75.92
2023-03-18T04:32:55.466Z,76.48
2023-03-18T04:35:23.584Z,76.16
2023-03-18T04:37:50.810Z,76.16
2023-03-18T04:40:18.464Z,76.42
2023-03-18T04:42:47.944Z,78.54
2023-03-18T04:45:16.289Z,78.66
2023-03-18T04:47:45.339Z,80.62
2023-03-18T04:50:13.870Z,82.12
2023-03-18T04:52:42.882Z,81.65
2023-03-18T04:55:10.905Z,79.09
2023-03-18T04:57:38.644Z,78.39
2023-03-18T05:00:10.355Z,76.97
2023-03-18T05:02:40.027Z,77.34
2023-03-18T05:05:08.159Z,74.89
2023-03-18T05:07:35.374Z,71.22
2023-03-18T05:10:03.403Z,70.63
2023-03-18T05:12:30.637Z,69.12
2023-03-18T05:14:57.540Z,65.31
2023-03-18T05:17:25.642Z,62.74
2023-03-18T05:19:52.493Z,59.76
2023-03-18T05:22:22.038Z,57.68
2023-03-18T05:24:49.726Z,54.05
2023-03-18T05:27:18.996Z,50.71
2023-03-18T05:29:46.326Z,48.62
2023-03-18T05:32:15.181Z,45.56
2023-03-18T05:34:43.025Z,43.38
2023-03-18T05:37:12.226Z,42.99
2023-03-18T05:39:39.586Z,40.19
2023-03-18T05:42:07.541Z,39.98
2023-03-18T05:44:34.859Z,39.06
2023-03-18T05:47:02.747Z,37.90
2023-03-18T05:49:29.836Z,37.12
2023-03-18T05:51:57.135Z,36.85
2023-03-18T05:54:24.259Z,35.22
2023-03-18T05:56:52.792Z,35.09
2023-03-18T05:59:20.579Z,33.78
2023-03-18T06:01:49.193Z,32.92
2023-03-18T06:04:20.100Z,33.00
2023-03-18T06:06:48.400Z,32.14
2023-03-18T06:09:16.647Z,31.46
2023-03-18T06:11:45.717Z,30.91
2023-03-18T06:14:13.111Z,29.58
2023-03-18T06:16:41.821Z,29.78
2023-03-18T06:19:10.850Z,28.76
2023-03-18T06:21:41.201Z,28.54
2023-03-18T06:24:09.594Z,27.56
2023-03-18T06:26:36.971Z,27.92
2023-03-18T06:29:05.365Z,26.89
2023-03-18T06:31:33.089Z,26.04
2023-03-18T06:34:01.420Z,25.82
2023-03-18T06:36:28.874Z,25.87
2023-03-18T06:38:56.162Z,26.32
2023-03-18T06:41:23.523Z,26.39
2023-03-18T06:43:51.855Z,25.43
2023-03-18T06:46:19.452Z,26.44
2023-03-18T06:48:46.640Z,25.15
2023-03-18T06:51:13.917Z,25.55
2023-03-18T06:53:42.106Z,26.57
2023-03-18T06:56:10.007Z,26.45
2023-03-18T06:58:37.862Z,25.65
2023-03-18T07:01:05.412Z,25.34
2023-03-18T07:03:32.984Z,25.21
2023-03-18T07:06:01.292Z,25.38
2023-03-18T07:08:29.360Z,24.13
2023-03-18T07:10:57.802Z,23.51
2023-03-18T07:13:25.069Z,22.00
2023-03-18T07:15:52.444Z,20.90
2023-03-18T07:18:19.731Z,21.07
2023-03-18T07:20:46.990Z,21.00
2023-03-18T07:23:14.227Z,23.59
2023-03-18T07:25:42.469Z,23.94
2023-03-18T07:28:09.401Z,24.85
2023-03-18T07:30:36.782Z,26.39
2023-03-18T07:33:04.455Z,26.33
2023-03-18T07:35:32.814Z,26.38
2023-03-18T07:37:59.829Z,26.93
2023-03-18T07:40:27.116Z,24.88
2023-03-18T07:42:53.955Z,26.25
2023-03-18T07:45:21.149Z,26.00
2023-03-18T07:47:48.331Z,25.49
2023-03-18T07:50:16.352Z,27.91
2023-03-18T07:52:43.317Z,26.75
2023-03-18T07:55:12.105Z,27.59
2023-03-18T07:57:39.287Z,27.23
2023-03-18T08:00:08.610Z,26.75
2023-03-18T08:02:36.281Z,26.76
2023-03-18T08:05:06.884Z,27.25
2023-03-18T08:07:35.672Z,26.45
2023-03-18T08:10:03.418Z,25.34
2023-03-18T08:12:45.283Z,26.56
2023-03-18T08:15:18.662Z,26.12
2023-03-18T08:17:45.974Z,26.40
2023-03-18T08:20:13.500Z,27.40
2023-03-18T08:22:40.343Z,25.61
2023-03-18T08:25:08.152Z,26.84
2023-03-18T08:27:35.183Z,25.38
2023-03-18T08:30:03.955Z,26.88
2023-03-18T08:32:31.209Z,26.83
2023-03-18T08:34:58.447Z,27.40
2023-03-18T08:37:26.047Z,26.36
2023-03-18T08:39:53.251Z,26.83
2023-03-18T08:42:20.379Z,26.11
2023-03-18T08:44:47.676Z,26.70
2023-03-18T08:47:15.050Z,25.09
2023-03-18T08:49:42.439Z,25.80
2023-03-18T08:52:10.600Z,24.69
2023-03-18T08:54:37.919Z,25.60
2023-03-18T08:57:04.973Z,26.45
2023-03-18T08:59:32.146Z,26.30
2023-03-18T09:01:59.149Z,25.22
2023-03-18T09:04:26.471Z,23.63
2023-03-18T09:06:53.423Z,24.73
2023-03-18T09:09:22.805Z,23.21
2023-03-18T09:11:51.460Z,23.98
2023-03-18T09:14:18.789Z,24.23
2023-03-18T09:16:46.203Z,22.71
2023-03-18T09:19:13.512Z,24.02
2023-03-18T09:21:40.378Z,22.04
2023-03-18T09:24:07.793Z,22.41
2023-03-18T09:26:34.666Z,21.47
2023-03-18T09:29:01.963Z,21.96
2023-03-18T09:31:28.822Z,22.00
2023-03-18T09:33:56.467Z,20.64
2023-03-18T09:36:23.409Z,20.58
2023-03-18T09:38:50.644Z,21.29
2023-03-18T09:41:38.749Z,20.81
2023-03-18T09:44:13.766Z,20.46
2023-03-18T09:46:58.745Z,21.92
2023-03-18T09:49:59.376Z,21.59
2023-03-18T09:52:31.987Z,21.99
2023-03-18T09:55:52.547Z,21.82
2023-03-18T09:58:46.710Z,22.62
2023-03-18T10:01:15.923Z,21.64
2023-03-18T10:03:53.924Z,21.75
2023-03-18T10:06:23.865Z,21.83
2023-03-18T10:09:12.392Z,23.00
2023-03-18T10:11:44.375Z,22.15
2023-03-18T10:14:48.750Z,21.81
2023-03-18T10:17:30.394Z,21.72
2023-03-18T10:20:04.631Z,21.97
2023-03-18T10:22:53.384Z,22.11
2023-03-18T10:25:28.935Z,21.52
2023-03-18T10:28:20.965Z,21.77
2023-03-18T10:31:01.375Z,21.66
2023-03-18T10:33:46.685Z,21.78
2023-03-18T10:36:19.302Z,20.38
2023-03-18T10:38:51.905Z,21.27
2023-03-18T10:41:25.388Z,20.52
2023-03-18T10:43:55.664Z,20.55
2023-03-18T10:46:25.660Z,20.76
2023-03-18T10:48:59.261Z,20.92
2023-03-18T10:51:54.141Z,22.72
2023-03-18T10:54:41.265Z,22.21
2023-03-18T10:57:14.616Z,22.67
2023-03-18T10:59:44.761Z,21.43
2023-03-18T11:02:20.476Z,20.62
2023-03-18T11:04:54.530Z,20.51
2023-03-18T11:07:28.606Z,20.08
2023-03-18T11:10:12.170Z,21.10
2023-03-18T11:12:39.177Z,21.43
2023-03-18T11:15:13.465Z,21.52
2023-03-18T11:17:40.874Z,22.28
2023-03-18T11:20:17.075Z,21.52
2023-03-18T11:22:47.835Z,22.35
2023-03-18T11:25:17.151Z,22.23
2023-03-18T11:27:47.239Z,21.50
2023-03-18T11:30:36.586Z,21.70
2023-03-18T11:33:25.349Z,20.38
2023-03-18T11:35:53.910Z,22.49
2023-03-18T11:38:32.834Z,21.30
2023-03-18T11:41:08.939Z,20.03
2023-03-18T11:43:38.052Z,20.29
2023-03-18T11:46:08.998Z,20.48
2023-03-18T11:48:39.458Z,21.13
2023-03-18T11:51:28.744Z,21.14
2023-03-18T11:54:40.401Z,20.75
2023-03-18T11:57:25.678Z,20.58
2023-03-18T12:00:01.044Z,19.66
2023-03-18T12:02:46.857Z,20.57
2023-03-18T12:05:41.937Z,21.01
2023-03-18T12:08:34.478Z,20.35
2023-03-18T12:11:20.073Z,19.91
2023-03-18T12:14:00.197Z,19.69
2023-03-18T12:16:50.481Z,20.80
2023-03-18T12:19:51.406Z,20.73
2023-03-18T12:22:26.701Z,21.11
2023-03-18T12:25:03.243Z,21.81
2023-03-18T12:27:59.130Z,21.33
2023-03-18T12:30:53.238Z,21.24
2023-03-18T12:33:48.952Z,20.79
2023-03-18T12:36:36.806Z,19.80
2023-03-18T12:39:43.485Z,18.63
2023-03-18T12:42:14.593Z,18.96
2023-03-18T12:44:41.465Z,17.88
2023-03-18T12:47:20.544Z,18.38
2023-03-18T12:50:12.794Z,19.10
2023-03-18T12:52:45.692Z,18.53
2023-03-18T12:55:27.004Z,18.35
2023-03-18T12:58:08.732Z,18.67
2023-03-18T13:00:38.768Z,19.69
2023-03-18T13:03:28.658Z,20.23
2023-03-18T13:05:58.498Z,19.57
2023-03-18T13:08:40.780Z,20.94
2023-03-18T13:11:29.356Z,19.76
2023-03-18T13:14:01.678Z,19.77
2023-03-18T13:16:30.467Z,20.68
2023-03-18T13:18:59.216Z,20.96
2023-03-18T13:21:31.046Z,20.60
2023-03-18T13:24:26.170Z,21.35
2023-03-18T13:27:15.454Z,21.71
2023-03-18T13:29:48.682Z,19.48
2023-03-18T13:32:38.454Z,20.68
2023-03-18T13:35:56.720Z,21.93
2023-03-18T13:38:47.666Z,22.96
2023-03-18T13:41:33.584Z,21.17
2023-03-18T13:44:12.901Z,22.37
2023-03-18T13:46:43.675Z,22.83
2023-03-18T13:49:32.097Z,22.91
2023-03-18T13:52:02.121Z,23.08
2023-03-18T13:54:37.931Z,23.73
2023-03-18T13:57:19.131Z,22.83
2023-03-18T13:59:48.492Z,23.17
2023-03-18T14:02:24.901Z,23.35
2023-03-18T14:04:53.251Z,24.18
2023-03-18T14:07:22.527Z,23.98
2023-03-18T14:10:17.248Z,24.38
2023-03-18T14:12:49.795Z,26.16
2023-03-18T14:15:39.695Z,24.03
2023-03-18T14:18:19.986Z,25.58
2023-03-18T14:20:53.537Z,25.00
2023-03-18T14:24:00.638Z,24.21
2023-03-18T14:26:27.807Z,24.44
2023-03-18T14:29:23.736Z,23.84
2023-03-18T14:31:58.089Z,25.15
2023-03-18T14:34:32.040Z,24.21
2023-03-18T14:36:58.821Z,24.69
2023-03-18T14:39:48.009Z,24.81
2023-03-18T14:42:58.522Z,25.78
2023-03-18T14:45:33.890Z,24.35
2023-03-18T14:48:11.737Z,24.72
2023-03-18T14:50:47.257Z,25.06
2023-03-18T14:53:34.771Z,24.77
2023-03-18T14:56:04.158Z,25.98
2023-03-18T14:58:34.350Z,24.29
2023-03-18T15:01:09.163Z,24.58
2023-03-18T15:03:39.966Z,24.79
2023-03-18T15:06:08.147Z,25.00
2023-03-18T15:08:47.695Z,25.36
2023-03-18T15:11:18.191Z,25.58
2023-03-18T15:13:45.264Z,24.56
2023-03-18T15:16:18.287Z,26.05
2023-03-18T15:18:45.910Z,25.29
2023-03-18T15:21:32.582Z,25.13
2023-03-18T15:24:03.782Z,24.30
2023-03-18T15:26:34.185Z,24.97
2023-03-18T15:29:16.073Z,24.60
2023-03-18T15:31:44.765Z,24.49
2023-03-18T15:34:16.240Z,24.33
2023-03-18T15:36:45.802Z,25.73
2023-03-18T15:39:45.347Z,25.11
2023-03-18T15:42:19.913Z,25.35
2023-03-18T15:44:58.525Z,24.62
2023-03-18T15:47:33.518Z,25.00
2023-03-18T15:50:14.677Z,25.17
2023-03-18T15:52:43.122Z,25.44
2023-03-18T15:55:28.073Z,25.94
2023-03-18T15:57:56.276Z,25.33
2023-03-18T16:00:23.520Z,25.08
2023-03-18T16:02:51.624Z,26.19
2023-03-18T16:05:23.201Z,26.86
2023-03-18T16:07:55.382Z,27.24
2023-03-18T16:10:25.812Z,27.49
2023-03-18T16:12:58.030Z,27.65
2023-03-18T16:15:26.520Z,27.78
2023-03-18T16:17:55.632Z,28.18
2023-03-18T16:20:28.955Z,28.43
2023-03-18T16:22:57.919Z,28.98
2023-03-18T16:25:26.517Z,28.90
2023-03-18T16:27:59.797Z,29.48
2023-03-18T16:30:29.740Z,30.08
2023-03-18T16:32:58.327Z,30.51
2023-03-18T16:35:30.864Z,30.76
2023-03-18T16:37:59.866Z,33.01
2023-03-18T16:40:29.248Z,34.78
2023-03-18T16:42:56.780Z,35.62
2023-03-18T16:45:34.094Z,36.62
2023-03-18T16:48:04.124Z,37.99
2023-03-18T16:50:36.007Z,39.36
2023-03-18T16:53:03.729Z,40.22
2023-03-18T16:55:31.701Z,41.13
2023-03-18T16:58:00.637Z,41.78
2023-03-18T17:00:31.857Z,43.17
2023-03-18T17:03:00.940Z,44.09
2023-03-18T17:05:28.631Z,45.29
2023-03-18T17:07:55.973Z,45.88
2023-03-18T17:10:25.944Z,46.18
2023-03-18T17:12:59.669Z,47.54
2023-03-18T17:15:29.966Z,49.80
2023-03-18T17:18:00.110Z,50.60
2023-03-18T17:20:30.353Z,50.86
2023-03-18T17:22:58.358Z,51.94
2023-03-18T17:25:28.071Z,53.48
2023-03-18T17:28:03.046Z,55.82
2023-03-18T17:30:39.465Z,56.85
2023-03-18T17:33:29.088Z,57.93
2023-03-18T17:35:56.657Z,59.22
2023-03-18T17:38:24.518Z,60.07
2023-03-18T17:40:52.110Z,61.25
2023-03-18T17:43:34.405Z,62.28
2023-03-18T17:46:03.225Z,63.02
2023-03-18T17:48:35.197Z,64.29
2023-03-18T17:51:17.495Z,65.07
2023-03-18T17:53:51.499Z,65.65
2023-03-18T17:56:20.277Z,67.69
2023-03-18T17:58:50.500Z,68.69
2023-03-18T18:01:26.547Z,68.46
2023-03-18T18:03:59.014Z,69.22
2023-03-18T18:06:32.076Z,70.22
2023-03-18T18:09:01.043Z,70.56
2023-03-18T18:11:33.336Z,71.50
2023-03-18T18:14:06.696Z,71.84
2023-03-18T18:16:33.563Z,72.19
2023-03-18T18:19:00.768Z,73.24
2023-03-18T18:21:27.729Z,74.20
2023-03-18T18:23:54.946Z,75.09
2023-03-18T18:26:22.205Z,75.34
2023-03-18T18:28:51.732Z,75.96
2023-03-18T18:31:19.918Z,76.82
2023-03-18T18:33:50.135Z,76.56
2023-03-18T18:36:18.155Z,77.64
2023-03-18T18:38:45.806Z,77.46
2023-03-18T18:41:12.769Z,77.78
2023-03-18T18:43:39.937Z,77.78
2023-03-18T18:46:19.698Z,78.09
2023-03-18T18:48:50.330Z,77.91
2023-03-18T18:51:19.467Z,76.97
2023-03-18T18:53:47.711Z,76.19
2023-03-18T18:56:22.372Z,75.98
2023-03-18T18:58:51.894Z,76.05
2023-03-18T19:01:19.888Z,76.10
2023-03-18T19:03:48.415Z,76.86
2023-03-18T19:06:35.966Z,76.71
2023-03-18T19:09:18.961Z,76.63
2023-03-18T19:11:53.240Z,77.08
2023-03-18T19:14:27.428Z,77.63
2023-03-18T19:16:59.588Z,78.12
2023-03-18T19:19:34.697Z,79.48
2023-03-18T19:22:02.986Z,78.90
2023-03-18T19:24:32.703Z,80.11
2023-03-18T19:27:02.972Z,80.30
2023-03-18T19:29:32.633Z,80.32
2023-03-18T19:32:01.410Z,80.25
2023-03-18T19:34:29.855Z,79.97
2023-03-18T19:36:57.048Z,78.38
2023-03-18T19:39:25.257Z,77.55
2023-03-18T19:41:52.238Z,76.48
2023-03-18T19:44:26.688Z,76.26
2023-03-18T19:46:56.436Z,75.69
2023-03-18T19:49:33.772Z,74.93
2023-03-18T19:52:02.509Z,74.21
2023-03-18T19:54:36.681Z,73.39
2023-03-18T19:57:07.283Z,71.76
2023-03-18T19:59:39.126Z,69.72
2023-03-18T20:02:30.588Z,67.78
2023-03-18T20:04:59.730Z,66.58
2023-03-18T20:07:30.407Z,65.71
2023-03-18T20:09:57.638Z,64.98
2023-03-18T20:12:39.012Z,65.10
2023-03-18T20:15:13.080Z,64.93
2023-03-18T20:17:42.102Z,66.19
2023-03-18T20:20:19.410Z,67.81
2023-03-18T20:22:53.030Z,71.12
2023-03-18T20:25:24.663Z,74.38
2023-03-18T20:27:53.635Z,74.05
2023-03-18T20:30:37.423Z,74.84
2023-03-18T20:33:05.243Z,74.43
2023-03-18T20:35:36.056Z,73.59
2023-03-18T20:38:33.344Z,73.26
2023-03-18T20:41:01.167Z,72.45
2023-03-18T20:43:29.279Z,72.42
2023-03-18T20:45:58.354Z,71.71
2023-03-18T20:48:25.738Z,72.09
2023-03-18T20:50:53.480Z,72.68
2023-03-18T20:53:26.333Z,73.33
2023-03-18T20:55:53.608Z,74.78
2023-03-18T20:58:30.212Z,74.82
2023-03-18T21:00:57.591Z,74.88
2023-03-18T21:03:30.085Z,76.06
2023-03-18T21:05:59.460Z,75.67
2023-03-18T21:08:28.097Z,76.59
2023-03-18T21:10:58.557Z,77.53
2023-03-18T21:13:36.096Z,78.63
2023-03-18T21:16:08.549Z,78.92
2023-03-18T21:18:35.723Z,79.66
2023-03-18T21:21:03.008Z,80.45
2023-03-18T21:23:32.284Z,80.32
2023-03-18T21:25:59.570Z,78.69
2023-03-18T21:28:28.765Z,77.42
2023-03-18T21:30:58.411Z,76.89
2023-03-18T21:33:31.351Z,76.15
2023-03-18T21:35:59.246Z,77.02
2023-03-18T21:38:29.233Z,76.19
2023-03-18T21:40:58.238Z,75.72
2023-03-18T21:43:36.761Z,75.61
2023-03-18T21:46:06.723Z,75.79
2023-03-18T21:48:33.774Z,76.13
2023-03-18T21:51:01.298Z,76.85
2023-03-18T21:53:28.766Z,77.77
2023-03-18T21:55:56.293Z,79.77
2023-03-18T21:58:25.759Z,80.71
2023-03-18T22:00:56.190Z,83.38
2023-03-18T22:03:25.845Z,84.85
2023-03-18T22:05:53.649Z,86.00
2023-03-18T22:08:21.484Z,85.48
2023-03-18T22:10:50.663Z,86.52
2023-03-18T22:13:23.783Z,87.00
2023-03-18T22:15:56.163Z,86.75
2023-03-18T22:18:23.804Z,86.23
2023-03-18T22:20:51.695Z,85.49
2023-03-18T22:23:24.712Z,84.27
2023-03-18T22:25:54.564Z,82.67
2023-03-18T22:28:22.623Z,81.03
2023-03-18T22:30:52.837Z,79.67
2023-03-18T22:33:26.583Z,78.04
2023-03-18T22:35:53.931Z,77.02
2023-03-18T22:38:23.104Z,77.11
2023-03-18T22:40:53.097Z,78.42
2023-03-18T22:43:31.045Z,78.66
2023-03-18T22:45:59.835Z,79.30
2023-03-18T22:48:27.136Z,82.26
2023-03-18T22:50:55.086Z,84.16
2023-03-18T22:53:25.672Z,83.91
2023-03-18T22:55:55.947Z,83.98
2023-03-18T22:58:26.381Z,84.17
2023-03-18T23:00:55.179Z,84.02
2023-03-18T23:03:33.872Z,85.07
2023-03-18T23:06:02.152Z,85.23
2023-03-18T23:08:29.608Z,85.64
2023-03-18T23:11:01.387Z,84.61
2023-03-18T23:13:38.639Z,83.96
2023-03-18T23:16:07.691Z,83.19
2023-03-18T23:18:34.854Z,81.41
2023-03-18T23:21:02.084Z,78.99
2023-03-18T23:23:30.460Z,77.07
2023-03-18T23:25:57.950Z,75.38
2023-03-18T23:28:24.962Z,73.20
2023-03-18T23:30:53.109Z,72.20
2023-03-18T23:33:20.597Z,73.15
2023-03-18T23:35:48.917Z,72.99
2023-03-18T23:38:16.218Z,73.75
2023-03-18T23:40:43.432Z,74.27
2023-03-18T23:43:10.492Z,73.96
2023-03-18T23:45:38.701Z,74.40
2023-03-18T23:48:06.766Z,75.24
2023-03-18T23:50:34.195Z,75.25
2023-03-18T23:53:01.311Z,75.35
2023-03-18T23:55:34.912Z,75.42
2023-03-18T23:58:05.296Z,75.84
